Time;durP1;ratioP1;P1;durP2;ratioP2;P2;SDS_P1;SDS_P2;PMS_P1;PMS_P2;Temp;Humidity;BMP_temperature;BMP_pressure;BME280_temperature;BME280_humidity;BME280_pressure;Samples;Min_cycle;Max_cycle;Signal;HPM_P1;HPM_P2
2021/12/20 00:01:00;;;;;;;17.77;7.83;;;;;;;;;;5020462;28;20033;-75
2021/12/20 00:03:26;;;;;;;21.42;8.00;;;;;;;;;;5026712;28;20037;-74
2021/12/20 00:05:51;;;;;;;20.40;8.43;;;;;;;;;;5027770;28;20143;-75
2021/12/20 00:08:17;;;;;;;16.17;7.43;;;;;;;;;;5024897;28;20128;-75
2021/12/20 00:10:43;;;;;;;15.00;7.87;;;;;;;;;;5022562;28;20037;-76
2021/12/20 00:13:08;;;;;;;16.50;8.03;;;;;;;;;;5024249;28;20029;-74
2021/12/20 00:15:34;;;;;;;17.53;6.80;;;;;;;;;;5025894;28;20029;-76
2021/12/20 00:17:59;;;;;;;16.30;7.67;;;;;;;;;;5020373;28;20041;-75
2021/12/20 00:20:25;;;;;;;15.27;7.43;;;;;;;;;;5028258;28;20037;-74
2021/12/20 00:22:50;;;;;;;15.70;6.37;;;;;;;;;;5035418;28;20171;-74
2021/12/20 00:25:16;;;;;;;13.50;7.07;;;;;;;;;;5042023;28;20434;-76
2021/12/20 00:27:41;;;;;;;14.33;6.70;;;;;;;;;;5033975;28;20045;-74
2021/12/20 00:30:09;;;;;;;13.53;6.53;;;;;;;;;;5042159;28;20080;-74
2021/12/20 00:32:34;;;;;;;15.88;7.03;;;;;;;;;;5046059;28;20037;-75
2021/12/20 00:35:00;;;;;;;15.63;6.77;;;;;;;;;;5034878;28;20379;-74
2021/12/20 00:40:22;;;;;;;14.80;6.25;;;;;;;;;;5040036;28;20118;-74
2021/12/20 00:42:58;;;;;;;16.80;5.88;;;;;;;;;;5038118;28;20096;-72
2021/12/20 00:45:27;;;;;;;13.77;6.57;;;;;;;;;;5034560;28;20033;-73
2021/12/20 00:47:52;;;;;;;12.98;6.10;;;;;;;;;;5033858;28;20048;-72
2021/12/20 00:50:19;;;;;;;12.60;5.80;;;;;;;;;;5020483;28;21240;-76
2021/12/20 00:52:46;;;;;;;13.05;5.88;;;;;;;;;;5023744;28;20044;-73
2021/12/20 00:55:15;;;;;;;9.32;5.00;;;;;;;;;;5033691;28;20088;-73
2021/12/20 00:57:42;;;;;;;12.88;5.68;;;;;;;;;;5032104;28;20045;-72
2021/12/20 01:00:08;;;;;;;9.65;4.25;;;;;;;;;;5031760;28;20071;-77
2021/12/20 01:02:34;;;;;;;10.23;5.33;;;;;;;;;;5023538;28;20120;-75
2021/12/20 01:04:59;;;;;;;6.43;3.73;;;;;;;;;;5033621;28;20045;-74
2021/12/20 01:07:25;;;;;;;6.93;4.03;;;;;;;;;;5025428;28;20108;-75
2021/12/20 01:09:51;;;;;;;7.50;3.87;;;;;;;;;;5020691;28;20068;-75
2021/12/20 01:12:19;;;;;;;8.48;3.67;;;;;;;;;;5035030;28;20045;-72
2021/12/20 01:14:46;;;;;;;9.13;3.97;;;;;;;;;;5031635;28;20035;-72
2021/12/20 01:17:11;;;;;;;7.05;3.60;;;;;;;;;;5039200;28;20037;-72
2021/12/20 01:19:38;;;;;;;8.13;4.17;;;;;;;;;;5038924;28;20041;-72
2021/12/20 01:22:05;;;;;;;9.40;4.90;;;;;;;;;;5034813;28;20045;-72
2021/12/20 01:24:31;;;;;;;9.23;5.32;;;;;;;;;;5044097;28;20416;-72
2021/12/20 01:26:57;;;;;;;11.40;5.53;;;;;;;;;;5052556;28;20397;-72
2021/12/20 01:29:22;;;;;;;9.43;5.00;;;;;;;;;;5035723;28;20042;-72
2021/12/20 01:31:48;;;;;;;8.03;4.30;;;;;;;;;;5058724;28;20075;-75
2021/12/20 01:34:14;;;;;;;8.30;5.03;;;;;;;;;;5034184;28;20045;-75
2021/12/20 01:36:39;;;;;;;15.67;7.70;;;;;;;;;;5035256;28;20037;-75
2021/12/20 01:39:05;;;;;;;12.67;6.40;;;;;;;;;;5050555;28;20045;-74
2021/12/20 01:41:31;;;;;;;9.23;4.15;;;;;;;;;;5047398;28;20049;-75
2021/12/20 01:43:56;;;;;;;9.87;4.67;;;;;;;;;;5034934;28;20034;-72
2021/12/20 01:46:23;;;;;;;9.53;4.50;;;;;;;;;;5034975;28;20045;-72
2021/12/20 01:48:49;;;;;;;8.60;4.20;;;;;;;;;;5036524;28;20049;-72
2021/12/20 01:51:33;;;;;;;9.17;5.63;;;;;;;;;;5035060;28;20029;-73
2021/12/20 01:53:59;;;;;;;10.57;4.68;;;;;;;;;;5033433;28;20112;-72
2021/12/20 01:56:24;;;;;;;6.77;3.53;;;;;;;;;;5033365;28;20535;-72
2021/12/20 01:58:50;;;;;;;8.23;5.13;;;;;;;;;;5031131;28;20077;-73
2021/12/20 02:03:45;;;;;;;6.20;3.43;;;;;;;;;;5033355;28;20037;-72
2021/12/20 02:06:21;;;;;;;7.20;3.80;;;;;;;;;;5033222;28;20034;-72
2021/12/20 02:08:46;;;;;;;6.88;3.42;;;;;;;;;;5039250;28;20039;-74
2021/12/20 02:11:12;;;;;;;9.27;4.30;;;;;;;;;;5043521;28;20049;-72
2021/12/20 02:13:39;;;;;;;8.77;4.67;;;;;;;;;;5034551;28;20025;-72
2021/12/20 02:16:05;;;;;;;6.65;3.92;;;;;;;;;;5034544;28;20029;-72
2021/12/20 02:18:31;;;;;;;7.40;4.50;;;;;;;;;;5030474;28;20044;-72
2021/12/20 02:20:57;;;;;;;8.90;3.83;;;;;;;;;;5033856;28;20033;-72
2021/12/20 02:23:23;;;;;;;6.60;3.72;;;;;;;;;;5034082;28;20079;-72
2021/12/20 02:25:48;;;;;;;6.47;3.33;;;;;;;;;;5038322;28;20141;-72
2021/12/20 02:28:16;;;;;;;5.77;3.13;;;;;;;;;;5034555;28;20033;-72
2021/12/20 02:38:48;;;;;;;5.45;3.00;;;;;;;;;;5032539;28;20071;-72
2021/12/20 02:41:16;;;;;;;5.38;3.20;;;;;;;;;;5044153;28;20163;-72
2021/12/20 02:43:51;;;;;;;4.35;2.92;;;;;;;;;;5032113;28;20030;-72
2021/12/20 02:46:45;;;;;;;4.53;2.63;;;;;;;;;;5032736;28;20037;-74
2021/12/20 02:49:22;;;;;;;4.63;2.50;;;;;;;;;;5033417;28;20147;-72
2021/12/20 02:51:50;;;;;;;5.85;2.92;;;;;;;;;;5031595;28;20033;-73
2021/12/20 02:54:18;;;;;;;5.50;2.83;;;;;;;;;;5028578;28;20037;-75
2021/12/20 02:56:44;;;;;;;8.45;3.13;;;;;;;;;;5047347;28;20036;-72
2021/12/20 02:59:10;;;;;;;5.03;2.95;;;;;;;;;;5030503;28;20064;-72
2021/12/20 03:01:38;;;;;;;10.00;3.67;;;;;;;;;;5028630;28;20037;-72
2021/12/20 03:04:04;;;;;;;4.40;2.70;;;;;;;;;;5027617;28;20040;-72
2021/12/20 03:06:37;;;;;;;5.85;2.85;;;;;;;;;;5031843;28;20037;-73
2021/12/20 03:09:05;;;;;;;4.97;2.90;;;;;;;;;;5032732;28;20048;-73
2021/12/20 03:11:31;;;;;;;7.18;2.80;;;;;;;;;;5031766;28;20120;-73
2021/12/20 03:14:07;;;;;;;6.00;2.80;;;;;;;;;;5043377;28;20120;-72
2021/12/20 03:16:34;;;;;;;5.28;2.83;;;;;;;;;;5033150;28;20033;-72
2021/12/20 03:19:00;;;;;;;;;;;;;;;;;;5032335;28;20064;-72
2021/12/20 03:21:25;;;;;;;3.97;2.50;;;;;;;;;;5032647;28;19956;-72
2021/12/20 03:23:50;;;;;;;6.27;2.67;;;;;;;;;;5033056;28;20067;-72
2021/12/20 03:26:16;;;;;;;6.10;2.90;;;;;;;;;;5032960;28;20052;-72
2021/12/20 03:28:41;;;;;;;4.03;2.20;;;;;;;;;;5032111;28;20038;-73
2021/12/20 03:31:06;;;;;;;3.27;2.10;;;;;;;;;;5033167;28;20071;-72
2021/12/20 03:33:32;;;;;;;4.60;2.73;;;;;;;;;;5032362;28;20034;-73
2021/12/20 03:35:57;;;;;;;4.77;3.00;;;;;;;;;;5033123;28;20077;-72
2021/12/20 03:38:23;;;;;;;4.53;2.90;;;;;;;;;;5046281;28;20440;-73
2021/12/20 03:40:48;;;;;;;3.83;2.33;;;;;;;;;;5032382;28;20045;-72
2021/12/20 03:43:13;;;;;;;5.03;2.63;;;;;;;;;;5033095;28;20121;-72
2021/12/20 03:45:41;;;;;;;3.90;2.60;;;;;;;;;;5031445;28;20404;-72
2021/12/20 03:48:07;;;;;;;5.13;2.53;;;;;;;;;;5032397;28;20037;-73
2021/12/20 03:50:32;;;;;;;3.63;2.03;;;;;;;;;;5026390;28;20524;-72
2021/12/20 03:52:57;;;;;;;4.97;2.63;;;;;;;;;;5041565;28;20033;-72
2021/12/20 03:55:23;;;;;;;3.37;2.00;;;;;;;;;;5033053;28;20138;-72
2021/12/20 03:57:48;;;;;;;5.23;3.13;;;;;;;;;;5032187;28;20038;-72
2021/12/20 04:00:15;;;;;;;4.20;2.77;;;;;;;;;;5032042;28;20132;-72
2021/12/20 04:02:44;;;;;;;4.88;2.72;;;;;;;;;;5030617;28;20401;-72
2021/12/20 04:05:11;;;;;;;5.55;3.00;;;;;;;;;;5028164;28;20041;-72
2021/12/20 04:07:36;;;;;;;;;;;;;;;;;;5046229;28;20178;-72
2021/12/20 04:10:03;;;;;;;6.03;3.05;;;;;;;;;;5032611;28;20408;-73
2021/12/20 04:12:28;;;;;;;6.82;3.35;;;;;;;;;;5031803;28;20124;-72
2021/12/20 04:14:53;;;;;;;7.87;3.20;;;;;;;;;;5026817;28;20113;-72
2021/12/20 04:17:19;;;;;;;4.80;2.50;;;;;;;;;;5025946;28;20116;-73
2021/12/20 04:19:44;;;;;;;4.33;2.53;;;;;;;;;;5031075;28;20500;-73
2021/12/20 04:22:10;;;;;;;4.43;2.40;;;;;;;;;;5032447;28;20136;-72
2021/12/20 04:24:35;;;;;;;7.03;2.97;;;;;;;;;;5032386;28;20045;-72
2021/12/20 04:27:01;;;;;;;5.73;2.47;;;;;;;;;;5032547;28;20034;-72
2021/12/20 04:29:28;;;;;;;7.13;4.00;;;;;;;;;;5030756;28;20037;-72
2021/12/20 04:31:54;;;;;;;6.07;3.42;;;;;;;;;;5042821;28;20496;-74
2021/12/20 04:34:19;;;;;;;5.27;2.90;;;;;;;;;;5032522;28;20049;-74
2021/12/20 04:36:45;;;;;;;5.63;3.13;;;;;;;;;;5042483;28;20034;-75
2021/12/20 04:39:15;;;;;;;6.33;3.07;;;;;;;;;;5032447;28;20092;-75
2021/12/20 04:41:40;;;;;;;8.32;2.45;;;;;;;;;;5040513;28;20041;-76
2021/12/20 04:44:06;;;;;;;4.00;2.60;;;;;;;;;;5032340;28;20044;-72
2021/12/20 04:46:31;;;;;;;6.43;2.67;;;;;;;;;;5035817;28;20148;-73
2021/12/20 04:48:56;;;;;;;4.43;2.77;;;;;;;;;;5033304;28;20076;-72
2021/12/20 04:51:22;;;;;;;7.63;2.83;;;;;;;;;;5034499;28;20034;-72
2021/12/20 04:53:47;;;;;;;9.07;3.30;;;;;;;;;;5035133;28;20041;-72
2021/12/20 04:56:13;;;;;;;7.27;3.60;;;;;;;;;;5035387;28;20516;-72
2021/12/20 04:58:38;;;;;;;5.57;2.77;;;;;;;;;;5035753;28;20026;-73
2021/12/20 05:01:04;;;;;;;6.17;3.40;;;;;;;;;;5035580;28;20975;-74
2021/12/20 05:03:29;;;;;;;5.87;3.10;;;;;;;;;;5035477;28;20393;-74
2021/12/20 05:05:54;;;;;;;6.67;2.93;;;;;;;;;;5034827;28;20191;-75
2021/12/20 05:08:20;;;;;;;5.20;2.63;;;;;;;;;;5035932;28;20036;-75
2021/12/20 05:10:45;;;;;;;7.63;2.53;;;;;;;;;;5035550;28;20139;-75
2021/12/20 05:13:12;;;;;;;5.60;2.77;;;;;;;;;;5017749;28;20055;-72
2021/12/20 05:15:38;;;;;;;;;;;;;;;;;;5035007;28;20041;-72
2021/12/20 05:18:05;;;;;;;5.57;2.80;;;;;;;;;;5035419;28;19917;-72
2021/12/20 05:20:30;;;;;;;13.52;3.45;;;;;;;;;;5035698;28;20034;-72
2021/12/20 05:22:57;;;;;;;6.07;3.03;;;;;;;;;;5035292;28;20057;-72
2021/12/20 05:25:24;;;;;;;4.90;3.22;;;;;;;;;;5034103;28;20068;-73
2021/12/20 05:27:50;;;;;;;6.00;3.00;;;;;;;;;;5033995;28;20034;-72
2021/12/20 05:30:17;;;;;;;8.30;3.43;;;;;;;;;;5034915;28;20116;-73
2021/12/20 05:32:43;;;;;;;;;;;;;;;;;;5035625;28;20377;-72
2021/12/20 05:35:09;;;;;;;9.23;3.67;;;;;;;;;;5035063;28;19921;-72
2021/12/20 05:37:35;;;;;;;15.90;3.95;;;;;;;;;;5047407;28;20033;-73
2021/12/20 05:40:00;;;;;;;5.90;3.07;;;;;;;;;;5034937;28;20427;-71
2021/12/20 05:42:26;;;;;;;6.47;3.30;;;;;;;;;;5034956;28;20029;-72
2021/12/20 05:44:51;;;;;;;11.50;4.47;;;;;;;;;;5035082;28;20033;-72
2021/12/20 05:47:22;;;;;;;11.07;3.80;;;;;;;;;;5033263;28;20065;-72
2021/12/20 05:49:48;;;;;;;9.23;3.55;;;;;;;;;;5034248;28;20470;-73
2021/12/20 05:52:13;;;;;;;7.70;4.07;;;;;;;;;;5032697;28;20049;-74
2021/12/20 05:54:38;;;;;;;11.97;4.73;;;;;;;;;;5034621;28;20530;-72
2021/12/20 05:57:05;;;;;;;7.70;4.07;;;;;;;;;;5034051;28;20037;-72
2021/12/20 05:59:30;;;;;;;12.32;6.07;;;;;;;;;;5037582;28;20041;-72
2021/12/20 06:01:56;;;;;;;7.10;3.73;;;;;;;;;;5044595;28;20125;-72
2021/12/20 06:04:21;;;;;;;10.07;4.03;;;;;;;;;;5048490;28;20022;-73
2021/12/20 06:06:46;;;;;;;8.07;3.47;;;;;;;;;;5032784;28;20040;-72
2021/12/20 06:09:12;;;;;;;7.93;3.40;;;;;;;;;;5049999;28;20041;-72
2021/12/20 06:11:37;;;;;;;10.13;3.77;;;;;;;;;;5040218;28;20057;-72
2021/12/20 06:14:03;;;;;;;7.93;4.00;;;;;;;;;;5033047;28;20091;-72
2021/12/20 06:16:28;;;;;;;10.43;4.20;;;;;;;;;;5033330;28;20440;-72
2021/12/20 06:18:54;;;;;;;6.80;3.40;;;;;;;;;;5034323;28;20485;-73
2021/12/20 06:21:20;;;;;;;7.53;3.97;;;;;;;;;;5032485;28;20120;-73
2021/12/20 06:23:46;;;;;;;11.13;4.68;;;;;;;;;;5032976;28;20042;-73
2021/12/20 06:26:11;;;;;;;10.90;3.73;;;;;;;;;;5034306;28;20045;-72
2021/12/20 06:28:37;;;;;;;9.50;3.77;;;;;;;;;;5034577;28;20036;-72
2021/12/20 06:31:02;;;;;;;6.53;3.40;;;;;;;;;;5033998;28;20405;-72
2021/12/20 06:33:28;;;;;;;11.77;3.40;;;;;;;;;;5048483;28;20116;-72
2021/12/20 06:35:54;;;;;;;9.83;3.57;;;;;;;;;;5032915;28;20044;-72
2021/12/20 06:38:21;;;;;;;5.83;2.77;;;;;;;;;;5033573;28;20034;-73
2021/12/20 06:40:46;;;;;;;;;;;;;;;;;;5033737;28;20397;-73
2021/12/20 06:43:12;;;;;;;11.65;4.65;;;;;;;;;;5044035;28;19925;-72
2021/12/20 06:45:38;;;;;;;8.57;3.73;;;;;;;;;;5031954;28;20128;-72
2021/12/20 06:48:04;;;;;;;12.85;3.65;;;;;;;;;;5033415;28;20466;-72
2021/12/20 06:50:30;;;;;;;9.10;3.47;;;;;;;;;;5026829;28;20117;-72
2021/12/20 06:52:56;;;;;;;7.23;3.27;;;;;;;;;;5031048;28;20116;-73
2021/12/20 06:55:21;;;;;;;9.07;3.63;;;;;;;;;;5032274;28;20382;-75
2021/12/20 06:57:47;;;;;;;9.73;4.40;;;;;;;;;;5021947;28;20044;-75
2021/12/20 07:00:13;;;;;;;9.17;3.43;;;;;;;;;;5033539;28;20041;-75
2021/12/20 07:02:38;;;;;;;7.43;3.95;;;;;;;;;;5033422;28;20128;-75
2021/12/20 07:05:04;;;;;;;8.97;3.17;;;;;;;;;;5033413;28;20120;-75
2021/12/20 07:07:29;;;;;;;7.77;3.47;;;;;;;;;;5032031;28;20457;-75
2021/12/20 07:09:55;;;;;;;10.53;4.63;;;;;;;;;;5032917;28;20029;-72
2021/12/20 07:12:22;;;;;;;5.97;3.60;;;;;;;;;;5032054;28;20111;-72
2021/12/20 07:14:50;;;;;;;5.22;2.50;;;;;;;;;;5033112;28;20409;-72
2021/12/20 07:17:17;;;;;;;5.28;2.88;;;;;;;;;;5033419;28;20041;-72
2021/12/20 07:19:43;;;;;;;6.97;3.47;;;;;;;;;;5032979;28;20083;-73
2021/12/20 07:22:08;;;;;;;6.67;3.10;;;;;;;;;;5030573;28;20085;-72
2021/12/20 07:24:34;;;;;;;7.60;3.40;;;;;;;;;;5032967;28;20477;-72
2021/12/20 07:26:59;;;;;;;6.30;3.13;;;;;;;;;;5031957;28;20033;-72
2021/12/20 07:29:25;;;;;;;5.30;2.70;;;;;;;;;;5032770;28;20037;-72
2021/12/20 07:31:50;;;;;;;8.40;2.87;;;;;;;;;;5017316;28;20057;-75
2021/12/20 07:34:16;;;;;;;4.67;2.50;;;;;;;;;;5031761;28;20048;-75
2021/12/20 07:36:41;;;;;;;3.67;1.87;;;;;;;;;;5031098;28;20033;-74
2021/12/20 07:39:07;;;;;;;3.47;1.97;;;;;;;;;;5037522;28;20065;-74
2021/12/20 07:41:32;;;;;;;6.23;2.27;;;;;;;;;;5031185;28;20033;-75
2021/12/20 07:43:58;;;;;;;4.77;2.73;;;;;;;;;;5027647;28;20507;-72
2021/12/20 07:46:23;;;;;;;4.17;2.57;;;;;;;;;;5031483;28;20394;-72
2021/12/20 07:48:49;;;;;;;4.60;2.10;;;;;;;;;;5032828;28;20057;-72
2021/12/20 07:51:17;;;;;;;2.83;1.60;;;;;;;;;;5023626;28;20045;-72
2021/12/20 07:53:42;;;;;;;4.53;2.22;;;;;;;;;;5031872;28;20037;-72
2021/12/20 07:56:08;;;;;;;5.67;2.87;;;;;;;;;;5032207;28;20052;-72
2021/12/20 07:58:33;;;;;;;4.07;1.80;;;;;;;;;;5032319;28;20067;-72
2021/12/20 08:01:01;;;;;;;4.07;2.20;;;;;;;;;;5032458;28;20076;-72
2021/12/20 08:03:27;;;;;;;4.93;1.92;;;;;;;;;;5043381;28;20038;-72
2021/12/20 08:05:52;;;;;;;5.72;2.15;;;;;;;;;;5045730;28;20041;-72
2021/12/20 08:08:18;;;;;;;3.17;1.33;;;;;;;;;;5032426;28;20056;-72
2021/12/20 08:10:43;;;;;;;3.93;1.80;;;;;;;;;;5040943;28;20091;-74
2021/12/20 08:13:10;;;;;;;5.50;2.07;;;;;;;;;;5031303;28;20449;-74
2021/12/20 08:15:35;;;;;;;;;;;;;;;;;;5029336;28;20402;-72
2021/12/20 08:18:01;;;;;;;10.55;2.60;;;;;;;;;;5031562;28;19917;-72
2021/12/20 08:20:26;;;;;;;6.10;2.80;;;;;;;;;;5035433;28;20443;-72
2021/12/20 08:22:52;;;;;;;4.20;2.20;;;;;;;;;;5035172;28;20056;-72
2021/12/20 08:25:18;;;;;;;5.40;2.40;;;;;;;;;;5051484;28;20052;-72
2021/12/20 08:27:44;;;;;;;5.30;2.25;;;;;;;;;;5036005;28;20041;-74
2021/12/20 08:30:10;;;;;;;3.72;1.80;;;;;;;;;;5036175;28;20037;-74
2021/12/20 08:32:36;;;;;;;5.53;2.30;;;;;;;;;;5036041;28;20120;-75
2021/12/20 08:35:03;;;;;;;3.70;2.27;;;;;;;;;;5036018;28;20592;-75
2021/12/20 08:37:29;;;;;;;4.65;2.42;;;;;;;;;;5012407;28;20285;-75
2021/12/20 08:39:54;;;;;;;4.93;2.00;;;;;;;;;;5026759;28;20478;-75
2021/12/20 08:42:20;;;;;;;3.67;1.80;;;;;;;;;;5035636;28;20136;-75
2021/12/20 08:44:46;;;;;;;3.63;2.73;;;;;;;;;;5029450;28;20065;-75
2021/12/20 08:47:12;;;;;;;5.68;2.05;;;;;;;;;;5034221;28;20029;-75
2021/12/20 08:49:37;;;;;;;4.10;1.67;;;;;;;;;;5027153;28;20043;-74
2021/12/20 08:52:03;;;;;;;2.93;1.30;;;;;;;;;;5035616;28;20055;-74
2021/12/20 08:54:29;;;;;;;3.30;1.70;;;;;;;;;;5035538;28;20474;-75
2021/12/20 08:56:55;;;;;;;5.53;1.70;;;;;;;;;;5035115;28;20037;-75
2021/12/20 08:59:21;;;;;;;4.32;1.73;;;;;;;;;;5044402;28;20836;-75
2021/12/20 09:01:47;;;;;;;2.73;1.80;;;;;;;;;;5032946;28;20041;-75
2021/12/20 09:04:12;;;;;;;4.10;1.60;;;;;;;;;;5034243;28;20466;-75
2021/12/20 09:06:41;;;;;;;2.87;1.87;;;;;;;;;;5034781;28;20524;-75
2021/12/20 09:09:08;;;;;;;4.00;1.67;;;;;;;;;;5034170;28;20037;-75
2021/12/20 09:11:34;;;;;;;4.22;1.17;;;;;;;;;;5029919;28;20484;-75
2021/12/20 09:14:00;;;;;;;3.80;2.20;;;;;;;;;;5033727;28;20033;-74
2021/12/20 09:16:26;;;;;;;3.93;1.30;;;;;;;;;;5033694;28;20037;-75
2021/12/20 09:18:51;;;;;;;4.15;1.40;;;;;;;;;;5034923;28;20052;-75
2021/12/20 09:21:17;;;;;;;3.70;1.80;;;;;;;;;;5033398;28;20037;-75
2021/12/20 09:23:43;;;;;;;3.70;1.97;;;;;;;;;;5048811;28;20041;-75
2021/12/20 09:26:08;;;;;;;4.27;1.80;;;;;;;;;;5035421;28;20041;-75
2021/12/20 09:28:34;;;;;;;5.33;1.47;;;;;;;;;;5035328;28;20032;-75
2021/12/20 09:31:00;;;;;;;3.37;2.00;;;;;;;;;;5034166;28;20499;-80
2021/12/20 09:33:26;;;;;;;3.03;1.20;;;;;;;;;;5024981;28;20040;-76
2021/12/20 09:35:53;;;;;;;3.07;1.80;;;;;;;;;;5033614;28;20371;-75
2021/12/20 09:38:19;;;;;;;3.05;1.50;;;;;;;;;;5034255;28;20120;-77
2021/12/20 09:43:27;;;;;;;6.03;3.03;;;;;;;;;;5031009;28;20045;-76
2021/12/20 09:45:55;;;;;;;8.30;2.70;;;;;;;;;;5035074;28;20049;-75
2021/12/20 09:48:20;;;;;;;9.80;3.13;;;;;;;;;;5016539;28;20096;-75
2021/12/20 09:50:46;;;;;;;10.47;3.30;;;;;;;;;;5034196;28;20521;-75
2021/12/20 09:53:14;;;;;;;7.67;3.20;;;;;;;;;;5029401;28;20470;-79
2021/12/20 09:55:43;;;;;;;7.97;3.33;;;;;;;;;;5026972;28;20262;-75
2021/12/20 09:58:09;;;;;;;9.10;3.28;;;;;;;;;;5043608;28;20088;-74
2021/12/20 10:00:34;;;;;;;4.40;2.60;;;;;;;;;;5033650;28;20033;-75
2021/12/20 10:03:00;;;;;;;5.27;2.73;;;;;;;;;;5040896;28;20038;-75
2021/12/20 10:05:25;;;;;;;4.87;2.67;;;;;;;;;;5019836;28;20048;-76
2021/12/20 10:07:51;;;;;;;6.93;2.87;;;;;;;;;;5030632;28;20543;-76
2021/12/20 10:10:45;;;;;;;6.05;2.72;;;;;;;;;;5030280;28;20022;-75
2021/12/20 10:13:20;;;;;;;5.40;2.85;;;;;;;;;;5008450;28;20046;-75
2021/12/20 10:15:46;;;;;;;5.68;2.80;;;;;;;;;;5031603;28;20052;-75
2021/12/20 10:18:13;;;;;;;5.07;2.50;;;;;;;;;;5044256;28;20474;-75
2021/12/20 10:20:38;;;;;;;;;;;;;;;;;;5033426;28;20043;-75
2021/12/20 10:23:17;;;;;;;3.72;2.85;;;;;;;;;;5038708;28;20011;-75
2021/12/20 10:25:44;;;;;;;4.15;2.47;;;;;;;;;;5033044;28;20068;-74
2021/12/20 10:28:22;;;;;;;;;;;;;;;;;;5033902;28;20091;-76
2021/12/20 10:31:11;;;;;;;4.75;2.15;;;;;;;;;;5025668;28;19921;-78
2021/12/20 10:33:37;;;;;;;5.28;2.10;;;;;;;;;;5017988;28;20564;-75
2021/12/20 10:36:06;;;;;;;6.95;2.15;;;;;;;;;;5029622;28;20524;-77
2021/12/20 10:38:43;;;;;;;4.65;3.00;;;;;;;;;;5030001;28;20370;-75
2021/12/20 10:41:19;;;;;;;;;;;;;;;;;;5030448;28;20044;-75
2021/12/20 10:43:52;;;;;;;6.78;2.63;;;;;;;;;;5039640;28;19912;-74
2021/12/20 10:46:26;;;;;;;8.23;3.50;;;;;;;;;;5031065;28;20042;-75
2021/12/20 10:49:05;;;;;;;6.15;2.75;;;;;;;;;;5031837;28;20036;-74
2021/12/20 10:51:39;;;;;;;5.68;2.83;;;;;;;;;;5030583;28;20120;-75
2021/12/20 10:54:10;;;;;;;8.35;3.40;;;;;;;;;;5033133;28;20041;-75
2021/12/20 10:56:39;;;;;;;9.23;3.60;;;;;;;;;;5027581;28;20496;-74
2021/12/20 10:59:08;;;;;;;8.73;3.90;;;;;;;;;;5042484;28;20051;-75
2021/12/20 11:04:20;;;;;;;10.27;4.40;;;;;;;;;;5030537;28;20038;-74
2021/12/20 11:09:18;;;;;;;8.02;3.90;;;;;;;;;;5016781;28;20525;-76
2021/12/20 11:12:08;;;;;;;7.47;3.92;;;;;;;;;;5022752;28;20064;-76
2021/12/20 11:14:38;;;;;;;11.32;4.65;;;;;;;;;;5005914;28;20567;-77
2021/12/20 11:17:06;;;;;;;10.48;4.40;;;;;;;;;;5025051;28;20056;-77
2021/12/20 11:19:39;;;;;;;13.60;5.13;;;;;;;;;;5011559;28;20136;-75
2021/12/20 11:22:14;;;;;;;8.85;4.63;;;;;;;;;;5010013;28;20144;-78
2021/12/20 11:24:55;;;;;;;8.52;5.03;;;;;;;;;;5010652;28;20378;-80
2021/12/20 11:27:35;;;;;;;8.77;4.25;;;;;;;;;;5012079;28;20108;-75
2021/12/20 11:30:13;;;;;;;10.25;4.65;;;;;;;;;;5020147;28;20045;-75
2021/12/20 11:32:38;;;;;;;;;;;;;;;;;;5023207;28;20048;-79
2021/12/20 11:35:05;;;;;;;12.05;4.65;;;;;;;;;;5018416;28;19931;-79
2021/12/20 11:37:30;;;;;;;8.68;4.55;;;;;;;;;;5011142;28;20041;-76
2021/12/20 11:39:57;;;;;;;11.07;4.83;;;;;;;;;;5017575;28;20749;-75
2021/12/20 11:42:24;;;;;;;9.25;4.82;;;;;;;;;;5029987;28;20071;-75
2021/12/20 11:44:54;;;;;;;8.60;4.97;;;;;;;;;;5024284;28;20041;-76
2021/12/20 11:47:32;;;;;;;12.70;5.40;;;;;;;;;;5024872;28;20045;-75
2021/12/20 11:49:59;;;;;;;;;;;;;;;;;;5027778;28;20178;-77
2021/12/20 11:52:29;;;;;;;10.88;5.18;;;;;;;;;;5044868;28;19921;-79
2021/12/20 11:54:55;;;;;;;14.07;6.57;;;;;;;;;;5017149;28;20037;-79
2021/12/20 11:57:42;;;;;;;13.07;6.20;;;;;;;;;;5011080;28;20033;-75
2021/12/20 12:00:10;;;;;;;12.07;5.40;;;;;;;;;;5022944;28;20080;-75
2021/12/20 12:02:43;;;;;;;16.20;7.70;;;;;;;;;;5017487;28;20069;-76
2021/12/20 12:05:11;;;;;;;15.77;6.95;;;;;;;;;;5017240;28;20110;-75
2021/12/20 12:07:38;;;;;;;13.88;6.53;;;;;;;;;;5011503;28;20375;-78
2021/12/20 12:10:15;;;;;;;12.70;6.88;;;;;;;;;;5023630;28;20077;-80
2021/12/20 12:12:43;;;;;;;17.08;6.85;;;;;;;;;;5027860;28;20041;-76
2021/12/20 12:15:11;;;;;;;12.40;6.47;;;;;;;;;;5015890;28;20084;-80
2021/12/20 12:17:55;;;;;;;15.15;7.10;;;;;;;;;;5018868;28;20124;-79
2021/12/20 12:21:05;;;;;;;15.90;6.38;;;;;;;;;;5016694;28;20068;-75
2021/12/20 12:23:43;;;;;;;12.13;5.78;;;;;;;;;;5015777;28;20191;-75
2021/12/20 12:26:09;;;;;;;11.13;5.30;;;;;;;;;;5015429;28;20069;-76
2021/12/20 12:28:55;;;;;;;10.80;4.68;;;;;;;;;;5012974;28;20045;-77
2021/12/20 12:31:21;;;;;;;7.40;3.78;;;;;;;;;;5016024;28;20051;-76
2021/12/20 12:33:46;;;;;;;9.33;4.10;;;;;;;;;;5027874;28;20037;-76
2021/12/20 12:36:30;;;;;;;7.50;3.57;;;;;;;;;;5023014;28;20037;-77
2021/12/20 12:39:01;;;;;;;5.63;3.33;;;;;;;;;;5017640;28;20041;-78
2021/12/20 12:41:29;;;;;;;7.10;3.55;;;;;;;;;;5020532;28;20041;-78
2021/12/20 12:44:02;;;;;;;4.47;2.60;;;;;;;;;;5017169;28;20040;-75
2021/12/20 12:46:41;;;;;;;5.25;2.72;;;;;;;;;;5024773;28;20047;-77
2021/12/20 12:49:26;;;;;;;5.03;2.38;;;;;;;;;;5018886;28;20050;-75
2021/12/20 12:51:53;;;;;;;4.75;2.00;;;;;;;;;;5024314;28;20042;-79
2021/12/20 12:54:41;;;;;;;3.15;2.20;;;;;;;;;;5041544;28;20521;-78
2021/12/20 12:57:09;;;;;;;3.35;1.88;;;;;;;;;;5014020;28;20037;-75
2021/12/20 12:59:47;;;;;;;3.65;1.95;;;;;;;;;;5017521;28;20055;-76
2021/12/20 13:02:15;;;;;;;2.42;1.70;;;;;;;;;;5016060;28;20120;-75
2021/12/20 13:04:48;;;;;;;2.95;1.73;;;;;;;;;;5018516;28;20047;-76
2021/12/20 13:07:21;;;;;;;3.10;2.00;;;;;;;;;;5022234;28;20045;-77
2021/12/20 13:09:48;;;;;;;4.13;1.70;;;;;;;;;;5015375;28;20834;-76
2021/12/20 13:12:23;;;;;;;;;;;;;;;;;;5020891;28;20528;-76
2021/12/20 13:14:55;;;;;;;4.00;2.38;;;;;;;;;;5031552;28;19925;-77
2021/12/20 13:17:30;;;;;;;3.97;2.30;;;;;;;;;;5028653;28;20078;-75
2021/12/20 13:21:01;;;;;;;4.05;2.30;;;;;;;;;;5020545;28;20061;-79
2021/12/20 13:23:08;;;;;;;5.05;2.38;;;;;;;;;;5014333;28;20141;-75
2021/12/20 13:25:36;;;;;;;4.32;2.40;;;;;;;;;;5023124;28;20063;-74
2021/12/20 13:28:02;;;;;;;4.40;2.40;;;;;;;;;;5023429;28;20045;-75
2021/12/20 13:30:38;;;;;;;5.45;2.95;;;;;;;;;;5032272;28;20045;-75
2021/12/20 13:33:04;;;;;;;3.80;2.40;;;;;;;;;;5023657;28;20037;-74
2021/12/20 13:35:29;;;;;;;6.27;3.23;;;;;;;;;;5037105;28;20389;-75
2021/12/20 13:38:16;;;;;;;6.63;3.37;;;;;;;;;;5034504;28;20117;-75
2021/12/20 13:40:45;;;;;;;6.35;3.60;;;;;;;;;;5032788;28;20067;-75
2021/12/20 13:43:12;;;;;;;5.20;3.40;;;;;;;;;;5035192;28;20042;-75
2021/12/20 13:45:37;;;;;;;7.55;4.05;;;;;;;;;;5033843;28;20033;-74
2021/12/20 13:48:09;;;;;;;5.80;3.40;;;;;;;;;;5031607;28;20045;-75
2021/12/20 13:50:35;;;;;;;6.07;3.25;;;;;;;;;;5044604;28;20497;-75
2021/12/20 13:53:00;;;;;;;5.07;2.60;;;;;;;;;;5034795;28;20034;-72
2021/12/20 13:55:26;;;;;;;6.47;3.80;;;;;;;;;;5030865;28;20310;-73
2021/12/20 13:57:51;;;;;;;6.10;3.40;;;;;;;;;;5033895;28;20040;-73
2021/12/20 14:00:17;;;;;;;6.50;3.53;;;;;;;;;;5033636;28;20116;-72
2021/12/20 14:02:44;;;;;;;4.73;3.23;;;;;;;;;;5017154;28;20124;-75
2021/12/20 14:05:11;;;;;;;5.68;3.00;;;;;;;;;;5034272;28;20040;-74
2021/12/20 14:07:40;;;;;;;4.57;2.78;;;;;;;;;;5033500;28;20033;-76
2021/12/20 14:10:12;;;;;;;4.40;2.85;;;;;;;;;;5033295;28;20525;-75
2021/12/20 14:12:48;;;;;;;6.03;3.38;;;;;;;;;;5036796;28;20052;-76
2021/12/20 14:15:19;;;;;;;5.63;2.85;;;;;;;;;;5033542;28;20064;-74
2021/12/20 14:18:03;;;;;;;4.47;2.55;;;;;;;;;;5030602;28;20486;-75
2021/12/20 14:20:41;;;;;;;4.15;2.70;;;;;;;;;;5033992;28;20088;-75
2021/12/20 14:23:24;;;;;;;4.38;2.50;;;;;;;;;;5030269;28;20068;-75
2021/12/20 14:26:16;;;;;;;4.22;2.83;;;;;;;;;;5021760;28;20041;-75
2021/12/20 14:28:41;;;;;;;7.00;2.90;;;;;;;;;;5019999;28;21600;-76
2021/12/20 14:31:21;;;;;;;4.83;3.43;;;;;;;;;;5033579;28;20053;-74
2021/12/20 14:33:53;;;;;;;4.68;3.00;;;;;;;;;;5039754;28;20045;-75
2021/12/20 14:36:20;;;;;;;3.80;2.42;;;;;;;;;;5031055;28;20386;-75
2021/12/20 14:38:53;;;;;;;6.28;2.70;;;;;;;;;;5037105;28;20041;-76
2021/12/20 14:41:20;;;;;;;3.63;2.30;;;;;;;;;;5033696;28;20040;-75
2021/12/20 14:43:46;;;;;;;5.45;2.55;;;;;;;;;;5032878;28;20073;-75
2021/12/20 14:48:58;;;;;;;3.70;2.17;;;;;;;;;;5031583;28;20045;-79
2021/12/20 14:51:26;;;;;;;2.58;1.83;;;;;;;;;;5028666;28;20033;-74
2021/12/20 14:54:12;;;;;;;2.65;1.70;;;;;;;;;;5035209;28;20090;-74
2021/12/20 14:56:39;;;;;;;3.33;1.92;;;;;;;;;;5061197;28;20359;-75
2021/12/20 14:59:05;;;;;;;3.08;1.95;;;;;;;;;;5042453;28;20096;-74
2021/12/20 15:01:30;;;;;;;2.73;1.80;;;;;;;;;;5033226;28;20033;-74
2021/12/20 15:03:57;;;;;;;4.97;2.53;;;;;;;;;;5035740;28;20105;-77
2021/12/20 15:06:23;;;;;;;3.53;2.33;;;;;;;;;;5030451;28;20087;-75
2021/12/20 15:08:48;;;;;;;4.43;2.43;;;;;;;;;;5036168;28;20117;-74
2021/12/20 15:11:13;;;;;;;5.90;2.30;;;;;;;;;;5037551;28;20037;-75
2021/12/20 15:13:39;;;;;;;4.30;2.43;;;;;;;;;;5042166;28;20037;-75